createdAt,value
2023-03-19T00:02:16.290Z,100502.59
2023-03-19T00:04:43.782Z,100493.75
2023-03-19T00:07:11.265Z,100497.81
2023-03-19T00:09:38.173Z,100494.28
2023-03-19T00:12:05.552Z,100501.00
2023-03-19T00:14:32.452Z,100499.81
2023-03-19T00:16:59.102Z,100497.78
2023-03-19T00:19:25.906Z,100499.88
2023-03-19T00:21:52.736Z,100495.44
2023-03-19T00:24:19.589Z,100495.22
2023-03-19T00:26:46.293Z,100501.38
2023-03-19T00:29:13.668Z,100496.28
2023-03-19T00:31:40.900Z,100505.09
2023-03-19T00:34:08.585Z,100502.66
2023-03-19T00:36:35.696Z,100497.56
2023-03-19T00:39:03.190Z,100506.38
2023-03-19T00:41:29.992Z,100497.44
2023-03-19T00:43:57.622Z,100491.19
2023-03-19T00:46:30.112Z,100498.41
2023-03-19T00:48:58.521Z,100492.25
2023-03-19T00:51:26.104Z,100491.69
2023-03-19T00:53:52.837Z,100492.75
2023-03-19T00:56:19.961Z,100498.16
2023-03-19T00:58:47.739Z,100498.91
2023-03-19T01:01:17.041Z,100500.84
2023-03-19T01:03:45.583Z,100500.06
2023-03-19T01:06:12.873Z,100498.69
2023-03-19T01:08:39.733Z,100497.38
2023-03-19T01:11:14.376Z,100501.09
2023-03-19T01:13:42.257Z,100492.38
2023-03-19T01:16:09.835Z,100505.66
2023-03-19T01:18:37.188Z,100504.34
2023-03-19T01:21:04.434Z,100504.16
2023-03-19T01:23:32.411Z,100505.31
2023-03-19T01:25:59.944Z,100506.47
2023-03-19T01:28:28.260Z,100518.44
2023-03-19T01:31:00.103Z,100513.22
2023-03-19T01:33:51.823Z,100516.09
2023-03-19T01:36:37.479Z,100521.03
2023-03-19T01:39:06.722Z,100526.06
2023-03-19T01:41:33.824Z,100521.41
2023-03-19T01:44:32.360Z,100519.97
2023-03-19T01:47:39.547Z,100524.25
2023-03-19T01:50:28.217Z,100519.69
2023-03-19T01:53:15.213Z,100534.69
2023-03-19T01:55:47.877Z,100525.41
2023-03-19T01:58:42.276Z,100523.63
2023-03-19T02:01:20.711Z,100522.97
2023-03-19T02:03:52.109Z,100529.97
2023-03-19T02:06:24.590Z,100518.59
2023-03-19T02:08:51.819Z,100519.47
2023-03-19T02:11:19.254Z,100519.63
2023-03-19T02:13:47.226Z,100512.59
2023-03-19T02:16:15.524Z,100516.41
2023-03-19T02:18:42.710Z,100514.75
2023-03-19T02:21:11.674Z,100511.22
2023-03-19T02:24:01.467Z,100511.69
2023-03-19T02:26:51.719Z,100510.97
2023-03-19T02:29:18.647Z,100517.88
2023-03-19T02:31:47.281Z,100505.81
2023-03-19T02:34:14.024Z,100511.13
2023-03-19T02:36:49.274Z,100501.66
2023-03-19T02:39:27.318Z,100505.28
2023-03-19T02:41:54.856Z,100506.13
2023-03-19T02:44:23.386Z,100506.97
2023-03-19T02:46:51.961Z,100495.97
2023-03-19T02:49:19.118Z,100507.63
2023-03-19T02:51:46.255Z,100502.81
2023-03-19T02:54:13.015Z,100507.19
2023-03-19T02:56:39.778Z,100505.78
2023-03-19T02:59:06.777Z,100504.91
2023-03-19T03:01:33.731Z,100506.34
2023-03-19T03:04:00.707Z,100513.66
2023-03-19T03:06:27.464Z,100511.00
2023-03-19T03:08:54.622Z,100500.47
2023-03-19T03:11:21.328Z,100501.31
2023-03-19T03:13:48.030Z,100500.47
2023-03-19T03:16:15.730Z,100503.97
2023-03-19T03:18:42.566Z,100503.88
2023-03-19T03:21:10.322Z,100504.75
2023-03-19T03:23:37.498Z,100498.28
2023-03-19T03:26:04.340Z,100498.28
2023-03-19T03:28:31.027Z,100502.00
2023-03-19T03:30:59.548Z,100503.69
2023-03-19T03:33:26.311Z,100499.44
2023-03-19T03:35:53.057Z,100499.22
2023-03-19T03:38:19.763Z,100498.56
2023-03-19T03:40:50.810Z,100494.88
2023-03-19T03:43:18.088Z,100490.78
2023-03-19T03:45:45.188Z,100497.63
2023-03-19T03:48:11.901Z,100498.28
2023-03-19T03:50:38.681Z,100493.56
2023-03-19T03:53:08.921Z,100501.53
2023-03-19T03:55:35.938Z,100506.06
2023-03-19T03:58:03.059Z,100544.91
2023-03-19T04:00:29.963Z,100545.31
2023-03-19T04:02:56.779Z,100548.66
2023-03-19T04:05:23.554Z,100543.38
2023-03-19T04:07:51.816Z,100547.19
2023-03-19T04:10:19.477Z,100537.53
2023-03-19T04:12:46.899Z,100543.41
2023-03-19T04:15:13.833Z,100545.13
2023-03-19T04:17:43.444Z,100533.63
2023-03-19T04:20:11.217Z,100533.16
2023-03-19T04:22:38.244Z,100550.78
2023-03-19T04:25:08.376Z,100545.59
2023-03-19T04:27:36.218Z,100556.09
2023-03-19T04:30:04.388Z,100551.00
2023-03-19T04:32:31.176Z,100551.16
2023-03-19T04:34:58.595Z,100559.91
2023-03-19T04:37:25.298Z,100565.31
2023-03-19T04:39:52.219Z,100560.84
2023-03-19T04:42:19.254Z,100567.09
2023-03-19T04:44:52.615Z,100553.72
2023-03-19T04:47:20.227Z,100575.72
2023-03-19T04:49:53.887Z,100578.47
2023-03-19T04:52:22.291Z,100576.56
2023-03-19T04:54:49.839Z,100574.94
2023-03-19T04:57:17.451Z,100574.94
2023-03-19T04:59:46.675Z,100575.91
2023-03-19T05:02:15.692Z,100575.81
2023-03-19T05:04:43.265Z,100568.59
2023-03-19T05:07:13.457Z,100573.03
2023-03-19T05:09:43.248Z,100574.22
2023-03-19T05:12:11.774Z,100569.56
2023-03-19T05:14:43.690Z,100577.44
2023-03-19T05:17:18.325Z,100579.16
2023-03-19T05:20:05.701Z,100590.22
2023-03-19T05:22:34.404Z,100584.72
2023-03-19T05:25:01.232Z,100583.59
2023-03-19T05:27:29.342Z,100581.72
2023-03-19T05:30:06.436Z,100598.56
2023-03-19T05:32:51.329Z,100604.91
2023-03-19T05:35:33.719Z,100612.19
2023-03-19T05:38:02.398Z,100613.66
2023-03-19T05:40:29.350Z,100613.69
2023-03-19T05:42:58.417Z,100604.94
2023-03-19T05:45:28.169Z,100613.81
2023-03-19T05:47:58.354Z,100621.25
2023-03-19T05:50:25.909Z,100613.91
2023-03-19T05:53:09.233Z,100617.53
2023-03-19T05:55:39.233Z,100617.44
2023-03-19T05:58:08.898Z,100636.63
2023-03-19T06:01:04.922Z,100638.78
2023-03-19T06:04:37.330Z,100630.28
2023-03-19T06:07:04.531Z,100624.88
2023-03-19T06:09:31.705Z,100598.28
2023-03-19T06:11:58.544Z,100576.38
2023-03-19T06:14:52.127Z,100548.41
2023-03-19T06:17:37.441Z,100557.75
2023-03-19T06:20:08.053Z,100550.47
2023-03-19T06:22:35.018Z,100551.13
2023-03-19T06:25:01.949Z,100538.50
2023-03-19T06:27:30.975Z,100530.34
2023-03-19T06:30:10.175Z,100532.06
2023-03-19T06:32:37.328Z,100520.97
2023-03-19T06:35:09.092Z,100511.91
2023-03-19T06:37:36.712Z,100507.34
2023-03-19T06:40:05.168Z,100510.00
2023-03-19T06:42:32.311Z,100520.06
2023-03-19T06:44:59.135Z,100525.03
2023-03-19T06:47:26.336Z,100529.72
2023-03-19T06:49:52.993Z,100538.78
2023-03-19T06:52:19.765Z,100548.91
2023-03-19T06:54:46.758Z,100558.84
2023-03-19T06:57:13.520Z,100554.75
2023-03-19T06:59:40.319Z,100558.09
2023-03-19T07:02:08.997Z,100554.38
2023-03-19T07:04:36.758Z,100554.97
2023-03-19T07:07:05.933Z,100564.53
2023-03-19T07:09:32.934Z,100574.38
2023-03-19T07:11:59.725Z,100583.50
2023-03-19T07:14:26.576Z,100607.97
2023-03-19T07:16:53.398Z,100674.81
2023-03-19T07:19:20.394Z,100692.50
2023-03-19T07:21:47.205Z,100664.63
2023-03-19T07:24:14.002Z,100674.41
2023-03-19T07:26:40.876Z,100640.25
2023-03-19T07:29:09.730Z,100618.19
2023-03-19T07:31:47.573Z,100643.16
2023-03-19T07:34:17.223Z,100688.09
2023-03-19T07:36:45.000Z,100719.88
2023-03-19T07:39:11.849Z,100718.81
2023-03-19T07:41:38.702Z,100696.59
2023-03-19T07:44:06.490Z,100696.59
2023-03-19T07:46:33.312Z,100699.25
2023-03-19T07:49:00.103Z,100696.03
2023-03-19T07:51:27.385Z,100703.28
2023-03-19T07:53:54.216Z,100694.34
2023-03-19T07:56:21.528Z,100696.84
2023-03-19T07:58:48.523Z,100698.03
2023-03-19T08:01:15.604Z,100684.28
2023-03-19T08:03:42.342Z,100649.66
2023-03-19T08:06:09.074Z,100608.16
2023-03-19T08:08:36.752Z,100597.91
2023-03-19T08:11:04.054Z,100584.63
2023-03-19T08:13:31.824Z,100594.78
2023-03-19T08:16:01.360Z,100598.84
2023-03-19T08:18:28.494Z,100593.81
2023-03-19T08:20:55.370Z,100578.47
2023-03-19T08:23:22.304Z,100567.75
2023-03-19T08:25:51.898Z,100578.66
2023-03-19T08:28:18.734Z,100581.41
2023-03-19T08:30:46.192Z,100590.88
2023-03-19T08:33:13.146Z,100606.69
2023-03-19T08:35:40.167Z,100622.22
2023-03-19T08:38:07.180Z,100639.78
2023-03-19T08:40:34.443Z,100643.28
2023-03-19T08:43:01.489Z,100645.00
2023-03-19T08:45:28.340Z,100656.28
2023-03-19T08:47:55.677Z,100669.59
2023-03-19T08:50:22.512Z,100665.09
2023-03-19T08:52:49.524Z,100664.16
2023-03-19T08:55:17.288Z,100656.94
2023-03-19T08:57:44.030Z,100692.25
2023-03-19T09:00:11.381Z,100701.53
2023-03-19T09:02:38.292Z,100716.66
2023-03-19T09:07:53.236Z,100729.84
2023-03-19T09:10:20.037Z,100726.34
2023-03-19T09:12:50.034Z,100727.19
2023-03-19T09:15:24.015Z,100724.72
2023-03-19T09:17:51.028Z,100713.53
2023-03-19T09:20:18.073Z,100715.97
2023-03-19T09:22:44.876Z,100719.03
2023-03-19T09:25:12.108Z,100715.50
2023-03-19T09:27:41.390Z,100718.16
2023-03-19T09:30:09.990Z,100718.25
2023-03-19T09:32:36.957Z,100712.94
2023-03-19T09:35:03.890Z,100702.69
2023-03-19T09:37:30.619Z,100692.16
2023-03-19T09:39:57.567Z,100688.56
2023-03-19T09:42:58.553Z,100674.50
2023-03-19T09:45:25.266Z,100684.03
2023-03-19T09:47:57.034Z,100690.75
2023-03-19T09:50:25.291Z,100699.09
2023-03-19T09:53:01.163Z,100686.28
2023-03-19T09:55:36.281Z,100677.81
2023-03-19T09:58:11.406Z,100671.44
2023-03-19T10:00:39.499Z,100674.66
2023-03-19T10:03:31.145Z,100661.03
2023-03-19T10:06:22.346Z,100654.16
2023-03-19T10:09:34.004Z,100646.13
2023-03-19T10:12:14.368Z,100637.31
2023-03-19T10:15:06.113Z,100639.91
2023-03-19T10:17:35.751Z,100634.97
2023-03-19T10:20:10.721Z,100628.72
2023-03-19T10:22:46.487Z,100630.09
2023-03-19T10:25:19.253Z,100626.06
2023-03-19T10:27:56.104Z,100628.84
2023-03-19T10:30:23.069Z,100618.66
2023-03-19T10:33:23.432Z,100621.03
2023-03-19T10:35:58.815Z,100613.03
2023-03-19T10:38:26.880Z,100607.69
2023-03-19T10:41:03.318Z,100607.59
2023-03-19T10:43:30.480Z,100601.97
2023-03-19T10:46:13.990Z,100605.56
2023-03-19T10:48:50.075Z,100600.84
2023-03-19T10:51:22.380Z,100602.56
2023-03-19T10:53:52.711Z,100604.69
2023-03-19T10:56:26.137Z,100602.22
2023-03-19T10:59:07.329Z,100606.34
2023-03-19T11:01:36.618Z,100602.69
2023-03-19T11:04:15.261Z,100604.75
2023-03-19T11:07:27.721Z,100602.56
2023-03-19T11:09:56.100Z,100606.13
2023-03-19T11:13:00.029Z,100596.13
2023-03-19T11:16:06.908Z,100595.06
2023-03-19T11:19:01.312Z,100595.56
2023-03-19T11:21:41.656Z,100594.72
2023-03-19T11:24:12.322Z,100599.97
2023-03-19T11:26:39.364Z,100595.09
2023-03-19T11:29:37.678Z,100605.28
2023-03-19T11:32:22.988Z,100598.47
2023-03-19T11:35:19.183Z,100592.16
2023-03-19T11:49:30.603Z,100602.50
2023-03-19T11:52:22.446Z,100603.56
2023-03-19T11:55:25.088Z,100610.84
2023-03-19T11:58:21.627Z,100619.09
2023-03-19T12:00:49.162Z,100621.88
2023-03-19T12:03:38.217Z,100628.06
2023-03-19T12:06:18.674Z,100629.25
2023-03-19T12:08:57.501Z,100626.44
2023-03-19T12:11:30.884Z,100633.88
2023-03-19T12:14:16.426Z,100631.81
2023-03-19T12:17:07.398Z,100634.09
2023-03-19T12:19:46.143Z,100636.25
2023-03-19T12:22:34.885Z,100635.59
2023-03-19T12:25:20.861Z,100626.78
2023-03-19T12:27:55.756Z,100623.22
2023-03-19T12:30:39.328Z,100627.34
2023-03-19T12:33:53.396Z,100623.72
2023-03-19T12:36:27.570Z,100629.13
2023-03-19T12:39:07.246Z,100626.13
2023-03-19T12:41:36.911Z,100623.34
2023-03-19T12:44:27.273Z,100627.50
2023-03-19T12:47:15.247Z,100618.53
2023-03-19T12:49:57.271Z,100615.00
2023-03-19T12:52:31.339Z,100615.00
2023-03-19T12:55:06.215Z,100607.34
2023-03-19T12:57:40.219Z,100604.44
2023-03-19T13:00:26.908Z,100612.31
2023-03-19T13:03:25.662Z,100605.63
2023-03-19T13:05:59.867Z,100606.88
2023-03-19T13:08:33.603Z,100611.09
2023-03-19T13:11:02.780Z,100612.78
2023-03-19T13:13:48.799Z,100605.44
2023-03-19T13:16:34.328Z,100608.34
2023-03-19T13:19:13.088Z,100604.00
2023-03-19T13:21:41.063Z,100611.66
2023-03-19T13:24:34.845Z,100613.75
2023-03-19T13:27:02.119Z,100605.41
2023-03-19T13:29:32.751Z,100609.72
2023-03-19T13:32:01.842Z,100605.72
2023-03-19T13:42:14.989Z,100599.41
2023-03-19T13:44:48.415Z,100596.38
2023-03-19T13:47:29.001Z,100599.13
2023-03-19T13:53:39.904Z,100589.53
2023-03-19T14:00:55.284Z,100590.84
2023-03-19T14:04:19.375Z,100586.91
2023-03-19T14:08:17.988Z,100580.81
2023-03-19T14:21:30.041Z,100574.88
2023-03-19T14:24:53.306Z,100574.03
2023-03-19T14:27:16.324Z,100582.38
2023-03-19T14:29:44.867Z,100572.19
2023-03-19T14:32:18.101Z,100571.09
2023-03-19T14:34:45.875Z,100564.59
2023-03-19T14:37:28.483Z,100575.47
2023-03-19T14:40:03.137Z,100566.44
2023-03-19T14:42:39.907Z,100565.47
2023-03-19T14:45:21.958Z,100575.22
2023-03-19T14:48:00.921Z,100564.19
2023-03-19T14:50:42.808Z,100560.84
2023-03-19T14:53:20.062Z,100563.38
2023-03-19T14:55:51.853Z,100559.06
2023-03-19T14:58:25.495Z,100559.81
2023-03-19T15:00:54.342Z,100565.53
2023-03-19T15:03:24.660Z,100559.66
2023-03-19T15:06:00.139Z,100563.53
2023-03-19T15:08:27.303Z,100557.44
2023-03-19T15:11:16.311Z,100561.63
2023-03-19T15:14:07.981Z,100562.53
2023-03-19T15:17:03.690Z,100563.78
2023-03-19T15:19:32.357Z,100560.91
2023-03-19T15:22:22.543Z,100564.13
2023-03-19T15:24:49.564Z,100556.28
2023-03-19T15:27:22.064Z,100557.56
2023-03-19T15:29:51.547Z,100565.28
2023-03-19T15:32:50.823Z,100557.09
2023-03-19T15:35:19.757Z,100548.41
2023-03-19T15:37:51.196Z,100554.13
2023-03-19T15:40:19.973Z,100552.78
2023-03-19T15:42:47.964Z,100551.66
2023-03-19T15:45:20.555Z,100554.81
2023-03-19T15:47:52.903Z,100552.97
2023-03-19T15:50:23.320Z,100557.69
2023-03-19T15:52:53.693Z,100554.84
2023-03-19T15:55:21.430Z,100555.00
2023-03-19T15:57:48.405Z,100556.53
2023-03-19T16:00:15.732Z,100562.94
2023-03-19T16:02:48.156Z,100560.22
2023-03-19T16:05:27.822Z,100564.50
2023-03-19T16:07:59.934Z,100568.88
2023-03-19T16:10:36.966Z,100570.69
2023-03-19T16:13:23.167Z,100566.03
2023-03-19T16:15:56.001Z,100572.41
2023-03-19T16:18:24.712Z,100569.56
2023-03-19T16:21:00.987Z,100566.34
2023-03-19T16:23:36.194Z,100578.50
2023-03-19T16:26:17.122Z,100576.47
2023-03-19T16:28:47.931Z,100574.19
2023-03-19T16:31:23.769Z,100581.38
2023-03-19T16:33:52.708Z,100582.66
2023-03-19T16:36:20.465Z,100593.63
2023-03-19T16:38:57.715Z,100588.78
2023-03-19T16:41:36.813Z,100586.03
2023-03-19T16:51:17.907Z,100585.69
2023-03-19T16:53:45.787Z,100584.91
2023-03-19T16:56:14.043Z,100600.06
2023-03-19T16:58:43.277Z,100590.88
2023-03-19T17:01:19.489Z,100590.91
2023-03-19T17:03:47.155Z,100597.03
2023-03-19T17:06:14.921Z,100595.41
2023-03-19T17:08:42.334Z,100593.03
2023-03-19T17:11:31.953Z,100598.25
2023-03-19T17:13:59.814Z,100600.16
2023-03-19T17:16:27.817Z,100595.41
2023-03-19T17:18:55.205Z,100603.09
2023-03-19T17:21:25.507Z,100596.03
2023-03-19T17:23:52.672Z,100596.41
2023-03-19T17:26:21.998Z,100602.38
2023-03-19T17:28:49.691Z,100606.25
2023-03-19T17:31:31.734Z,100611.59
2023-03-19T17:34:13.375Z,100611.47
2023-03-19T17:36:40.353Z,100618.66
2023-03-19T17:39:07.874Z,100617.44
2023-03-19T17:41:37.618Z,100616.72
2023-03-19T17:44:06.552Z,100615.47
2023-03-19T17:46:37.877Z,100620.31
2023-03-19T17:49:06.500Z,100612.81
2023-03-19T17:51:33.459Z,100623.50
2023-03-19T17:54:00.968Z,100617.53
2023-03-19T17:56:33.128Z,100618.13
2023-03-19T17:59:01.168Z,100619.31
2023-03-19T18:01:28.514Z,100620.28
2023-03-19T18:03:56.593Z,100630.00
2023-03-19T18:06:29.601Z,100631.59
2023-03-19T18:09:01.519Z,100628.19
2023-03-19T18:11:37.106Z,100623.31
2023-03-19T18:14:03.886Z,100628.03
2023-03-19T18:16:32.197Z,100630.72
2023-03-19T18:19:01.526Z,100632.75
2023-03-19T18:26:29.421Z,100640.00
2023-03-19T18:45:36.078Z,100645.75
2023-03-19T18:49:25.645Z,100639.16
2023-03-19T18:52:02.727Z,100642.47
2023-03-19T18:54:32.957Z,100641.38
2023-03-19T18:57:01.249Z,100642.34
2023-03-19T18:59:33.187Z,100646.84
2023-03-19T19:02:19.831Z,100650.72
2023-03-19T19:04:46.829Z,100655.63
2023-03-19T19:07:15.043Z,100658.84
2023-03-19T19:09:42.302Z,100666.00
2023-03-19T19:12:13.485Z,100654.47
2023-03-19T19:14:40.469Z,100661.41
2023-03-19T19:17:13.629Z,100657.88
2023-03-19T19:19:42.863Z,100656.41
2023-03-19T19:22:19.322Z,100670.47
2023-03-19T19:24:46.259Z,100665.13
2023-03-19T19:27:16.673Z,100665.13
2023-03-19T19:29:43.574Z,100674.09
2023-03-19T19:32:19.990Z,100675.81
2023-03-19T19:34:46.742Z,100675.59
2023-03-19T19:37:17.348Z,100670.03
2023-03-19T19:39:45.002Z,100682.41
2023-03-19T19:42:13.317Z,100682.50
2023-03-19T19:44:40.792Z,100682.09
2023-03-19T19:47:23.843Z,100681.38
2023-03-19T19:50:26.560Z,100674.97
2023-03-19T20:23:07.683Z,100675.97
2023-03-19T20:46:41.682Z,100696.34
2023-03-19T21:11:17.988Z,100699.00
2023-03-19T21:22:59.652Z,100698.72
2023-03-19T21:31:25.517Z,100696.69
2023-03-19T21:46:10.907Z,100682.41
2023-03-19T21:49:44.481Z,100682.94
2023-03-19T21:53:12.916Z,100673.84
2023-03-19T21:56:05.931Z,100689.75
2023-03-19T21:59:00.289Z,100689.75
2023-03-19T22:02:38.635Z,100689.13
2023-03-19T22:06:12.944Z,100693.63
2023-03-19T22:09:12.691Z,100686.72
2023-03-19T22:11:46.098Z,100694.47
2023-03-19T22:14:23.028Z,100697.38
2023-03-19T22:17:01.415Z,100694.06
2023-03-19T22:19:49.482Z,100691.41
2023-03-19T22:22:45.480Z,100680.75
2023-03-19T22:25:42.987Z,100678.06
2023-03-19T22:29:06.515Z,100688.00
2023-03-19T22:35:48.179Z,100683.44
2023-03-19T22:42:52.904Z,100691.44
2023-03-19T22:53:00.804Z,100688.66
2023-03-19T22:56:19.117Z,100686.53
2023-03-19T22:59:21.912Z,100689.06
2023-03-19T23:02:24.056Z,100681.00
2023-03-19T23:05:06.167Z,100683.75
2023-03-19T23:07:48.232Z,100675.56
2023-03-19T23:10:39.120Z,100689.53
2023-03-19T23:14:26.327Z,100689.06
2023-03-19T23:16:37.092Z,100686.88
2023-03-19T23:19:15.679Z,100684.81
2023-03-19T23:22:45.809Z,100686.94
2023-03-19T23:25:44.792Z,100681.63
2023-03-19T23:28:52.702Z,100687.78
2023-03-19T23:35:59.123Z,100681.31
2023-03-19T23:38:37.105Z,100690.25
2023-03-19T23:41:40.290Z,100680.97
2023-03-19T23:44:36.312Z,100687.44
2023-03-19T23:51:46.603Z,100687.44
